sensor_id;sensor_type;location;lat;lon;timestamp;P1;durP1;ratioP1;P2;durP2;ratioP2
67986;SDS011;54767;53.800;15.956;2023-08-31T00:01:38;4.60;;;3.20;;
67986;SDS011;54767;53.800;15.956;2023-08-31T00:04:07;7.60;;;4.50;;
67986;SDS011;54767;53.800;15.956;2023-08-31T00:06:43;6.20;;;3.60;;
67986;SDS011;54767;53.800;15.956;2023-08-31T00:09:15;10.20;;;3.80;;
67986;SDS011;54767;53.800;15.956;2023-08-31T00:11:43;8.90;;;4.00;;
67986;SDS011;54767;53.800;15.956;2023-08-31T00:14:20;8.20;;;4.40;;
67986;SDS011;54767;53.800;15.956;2023-08-31T00:16:53;5.60;;;4.10;;
67986;SDS011;54767;53.800;15.956;2023-08-31T00:19:45;8.80;;;3.90;;
67986;SDS011;54767;53.800;15.956;2023-08-31T00:22:18;4.60;;;3.50;;
67986;SDS011;54767;53.800;15.956;2023-08-31T00:24:47;5.30;;;3.20;;
67986;SDS011;54767;53.800;15.956;2023-08-31T00:27:16;5.80;;;3.40;;
67986;SDS011;54767;53.800;15.956;2023-08-31T00:29:45;5.90;;;2.40;;
67986;SDS011;54767;53.800;15.956;2023-08-31T00:32:17;4.60;;;2.70;;
67986;SDS011;54767;53.800;15.956;2023-08-31T00:34:46;3.00;;;2.70;;
67986;SDS011;54767;53.800;15.956;2023-08-31T00:37:15;6.00;;;2.60;;
67986;SDS011;54767;53.800;15.956;2023-08-31T00:39:43;2.70;;;2.50;;
67986;SDS011;54767;53.800;15.956;2023-08-31T00:42:12;3.50;;;2.90;;
67986;SDS011;54767;53.800;15.956;2023-08-31T00:44:45;3.40;;;2.30;;
67986;SDS011;54767;53.800;15.956;2023-08-31T00:47:31;4.00;;;2.30;;
67986;SDS011;54767;53.800;15.956;2023-08-31T00:50:01;3.60;;;2.60;;
67986;SDS011;54767;53.800;15.956;2023-08-31T00:52:31;4.30;;;2.60;;
67986;SDS011;54767;53.800;15.956;2023-08-31T00:55:00;5.20;;;2.50;;
67986;SDS011;54767;53.800;15.956;2023-08-31T00:57:31;2.90;;;2.40;;
67986;SDS011;54767;53.800;15.956;2023-08-31T01:00:00;4.70;;;2.40;;
67986;SDS011;54767;53.800;15.956;2023-08-31T01:02:40;7.20;;;2.80;;
67986;SDS011;54767;53.800;15.956;2023-08-31T01:05:33;5.70;;;2.60;;
67986;SDS011;54767;53.800;15.956;2023-08-31T01:13:41;5.20;;;2.50;;
67986;SDS011;54767;53.800;15.956;2023-08-31T01:16:12;3.50;;;2.30;;
67986;SDS011;54767;53.800;15.956;2023-08-31T01:18:42;6.30;;;2.60;;
67986;SDS011;54767;53.800;15.956;2023-08-31T01:21:30;7.30;;;2.70;;
67986;SDS011;54767;53.800;15.956;2023-08-31T01:24:05;3.00;;;2.50;;
67986;SDS011;54767;53.800;15.956;2023-08-31T01:26:34;2.60;;;2.30;;
67986;SDS011;54767;53.800;15.956;2023-08-31T01:29:03;3.90;;;2.20;;
67986;SDS011;54767;53.800;15.956;2023-08-31T01:31:31;3.60;;;2.40;;
67986;SDS011;54767;53.800;15.956;2023-08-31T01:34:00;4.60;;;2.40;;
67986;SDS011;54767;53.800;15.956;2023-08-31T01:36:30;6.20;;;2.50;;
67986;SDS011;54767;53.800;15.956;2023-08-31T01:39:26;3.70;;;2.50;;
67986;SDS011;54767;53.800;15.956;2023-08-31T01:41:55;4.50;;;2.30;;
67986;SDS011;54767;53.800;15.956;2023-08-31T01:44:26;4.50;;;2.30;;
67986;SDS011;54767;53.800;15.956;2023-08-31T01:47:02;4.60;;;2.70;;
67986;SDS011;54767;53.800;15.956;2023-08-31T01:49:36;2.60;;;2.30;;
67986;SDS011;54767;53.800;15.956;2023-08-31T01:52:05;3.50;;;2.20;;
67986;SDS011;54767;53.800;15.956;2023-08-31T01:54:35;4.10;;;2.10;;
67986;SDS011;54767;53.800;15.956;2023-08-31T01:57:05;3.80;;;2.20;;
67986;SDS011;54767;53.800;15.956;2023-08-31T01:59:34;6.00;;;2.30;;
67986;SDS011;54767;53.800;15.956;2023-08-31T02:02:03;2.40;;;2.20;;
67986;SDS011;54767;53.800;15.956;2023-08-31T02:04:31;4.10;;;2.30;;
67986;SDS011;54767;53.800;15.956;2023-08-31T02:07:00;2.70;;;2.20;;
67986;SDS011;54767;53.800;15.956;2023-08-31T02:09:28;3.50;;;2.20;;
67986;SDS011;54767;53.800;15.956;2023-08-31T02:11:57;4.30;;;2.40;;
67986;SDS011;54767;53.800;15.956;2023-08-31T02:14:25;2.60;;;2.30;;
67986;SDS011;54767;53.800;15.956;2023-08-31T02:16:53;3.60;;;2.20;;
67986;SDS011;54767;53.800;15.956;2023-08-31T02:19:21;3.00;;;2.30;;
67986;SDS011;54767;53.800;15.956;2023-08-31T02:21:49;6.00;;;2.50;;
67986;SDS011;54767;53.800;15.956;2023-08-31T02:24:17;2.50;;;2.30;;
67986;SDS011;54767;53.800;15.956;2023-08-31T02:26:45;5.60;;;2.80;;
67986;SDS011;54767;53.800;15.956;2023-08-31T02:29:14;2.70;;;2.30;;
67986;SDS011;54767;53.800;15.956;2023-08-31T02:31:42;3.60;;;2.20;;
67986;SDS011;54767;53.800;15.956;2023-08-31T02:34:10;2.70;;;2.30;;
67986;SDS011;54767;53.800;15.956;2023-08-31T02:36:38;3.20;;;2.20;;
67986;SDS011;54767;53.800;15.956;2023-08-31T02:39:07;4.70;;;2.60;;
67986;SDS011;54767;53.800;15.956;2023-08-31T02:41:35;4.40;;;2.40;;
67986;SDS011;54767;53.800;15.956;2023-08-31T02:44:03;4.20;;;2.50;;
67986;SDS011;54767;53.800;15.956;2023-08-31T02:46:32;4.10;;;2.60;;
67986;SDS011;54767;53.800;15.956;2023-08-31T02:49:00;2.60;;;2.30;;
67986;SDS011;54767;53.800;15.956;2023-08-31T02:51:28;3.30;;;2.70;;
67986;SDS011;54767;53.800;15.956;2023-08-31T02:53:57;3.50;;;2.40;;
67986;SDS011;54767;53.800;15.956;2023-08-31T02:56:25;3.20;;;2.20;;
67986;SDS011;54767;53.800;15.956;2023-08-31T02:58:53;4.60;;;2.60;;
67986;SDS011;54767;53.800;15.956;2023-08-31T03:01:21;4.20;;;2.70;;
67986;SDS011;54767;53.800;15.956;2023-08-31T03:03:51;5.50;;;3.10;;
67986;SDS011;54767;53.800;15.956;2023-08-31T03:06:19;3.00;;;2.70;;
67986;SDS011;54767;53.800;15.956;2023-08-31T03:08:47;5.70;;;3.10;;
67986;SDS011;54767;53.800;15.956;2023-08-31T03:11:16;4.50;;;2.60;;
67986;SDS011;54767;53.800;15.956;2023-08-31T03:13:44;4.60;;;2.70;;
67986;SDS011;54767;53.800;15.956;2023-08-31T03:16:14;3.00;;;2.70;;
67986;SDS011;54767;53.800;15.956;2023-08-31T03:18:42;3.10;;;2.70;;
67986;SDS011;54767;53.800;15.956;2023-08-31T03:21:10;3.30;;;2.80;;
67986;SDS011;54767;53.800;15.956;2023-08-31T03:23:38;7.30;;;2.70;;
67986;SDS011;54767;53.800;15.956;2023-08-31T03:26:07;6.70;;;2.90;;
67986;SDS011;54767;53.800;15.956;2023-08-31T03:28:36;6.20;;;2.80;;
67986;SDS011;54767;53.800;15.956;2023-08-31T03:31:06;2.70;;;2.50;;
67986;SDS011;54767;53.800;15.956;2023-08-31T03:33:34;5.70;;;2.70;;
67986;SDS011;54767;53.800;15.956;2023-08-31T03:36:03;4.10;;;2.60;;
67986;SDS011;54767;53.800;15.956;2023-08-31T03:41:06;3.00;;;2.60;;
67986;SDS011;54767;53.800;15.956;2023-08-31T03:43:34;3.20;;;2.70;;
67986;SDS011;54767;53.800;15.956;2023-08-31T03:46:02;3.00;;;2.60;;
67986;SDS011;54767;53.800;15.956;2023-08-31T03:48:31;4.10;;;2.70;;
67986;SDS011;54767;53.800;15.956;2023-08-31T03:50:59;5.50;;;3.10;;
67986;SDS011;54767;53.800;15.956;2023-08-31T03:53:27;5.40;;;2.90;;
67986;SDS011;54767;53.800;15.956;2023-08-31T03:55:56;3.50;;;2.60;;
67986;SDS011;54767;53.800;15.956;2023-08-31T03:59:31;3.80;;;2.70;;
67986;SDS011;54767;53.800;15.956;2023-08-31T04:04:31;4.60;;;2.90;;
67986;SDS011;54767;53.800;15.956;2023-08-31T04:07:00;4.90;;;2.90;;
67986;SDS011;54767;53.800;15.956;2023-08-31T04:09:28;6.50;;;3.40;;
67986;SDS011;54767;53.800;15.956;2023-08-31T04:11:58;4.40;;;3.40;;
67986;SDS011;54767;53.800;15.956;2023-08-31T04:14:46;3.90;;;3.10;;
67986;SDS011;54767;53.800;15.956;2023-08-31T04:17:34;4.90;;;3.60;;
67986;SDS011;54767;53.800;15.956;2023-08-31T04:20:03;6.30;;;4.10;;
67986;SDS011;54767;53.800;15.956;2023-08-31T04:22:33;10.50;;;4.40;;
67986;SDS011;54767;53.800;15.956;2023-08-31T04:25:02;4.40;;;3.90;;
67986;SDS011;54767;53.800;15.956;2023-08-31T04:27:31;5.20;;;3.80;;
67986;SDS011;54767;53.800;15.956;2023-08-31T04:30:02;6.70;;;4.40;;
67986;SDS011;54767;53.800;15.956;2023-08-31T04:32:31;7.90;;;4.60;;
67986;SDS011;54767;53.800;15.956;2023-08-31T04:34:59;7.20;;;4.20;;
67986;SDS011;54767;53.800;15.956;2023-08-31T04:37:27;8.60;;;5.10;;
67986;SDS011;54767;53.800;15.956;2023-08-31T04:39:55;9.10;;;4.50;;
67986;SDS011;54767;53.800;15.956;2023-08-31T04:42:23;6.90;;;4.70;;
67986;SDS011;54767;53.800;15.956;2023-08-31T04:44:51;6.50;;;4.30;;
67986;SDS011;54767;53.800;15.956;2023-08-31T04:47:20;5.90;;;3.90;;
67986;SDS011;54767;53.800;15.956;2023-08-31T04:49:48;5.70;;;4.00;;
67986;SDS011;54767;53.800;15.956;2023-08-31T04:52:16;4.60;;;4.00;;
67986;SDS011;54767;53.800;15.956;2023-08-31T04:54:45;5.90;;;3.90;;
67986;SDS011;54767;53.800;15.956;2023-08-31T04:57:13;6.70;;;4.10;;
67986;SDS011;54767;53.800;15.956;2023-08-31T04:59:41;5.20;;;3.90;;
67986;SDS011;54767;53.800;15.956;2023-08-31T05:02:09;6.40;;;4.10;;
67986;SDS011;54767;53.800;15.956;2023-08-31T05:04:37;4.90;;;3.70;;
67986;SDS011;54767;53.800;15.956;2023-08-31T05:07:05;5.60;;;3.90;;
67986;SDS011;54767;53.800;15.956;2023-08-31T05:09:34;4.60;;;3.70;;
67986;SDS011;54767;53.800;15.956;2023-08-31T05:12:03;4.30;;;3.70;;
67986;SDS011;54767;53.800;15.956;2023-08-31T05:14:31;5.20;;;3.70;;
67986;SDS011;54767;53.800;15.956;2023-08-31T05:16:59;4.00;;;3.60;;
67986;SDS011;54767;53.800;15.956;2023-08-31T05:19:28;6.10;;;3.60;;
67986;SDS011;54767;53.800;15.956;2023-08-31T05:21:56;6.20;;;3.80;;
67986;SDS011;54767;53.800;15.956;2023-08-31T05:24:25;5.10;;;3.80;;
67986;SDS011;54767;53.800;15.956;2023-08-31T05:26:53;5.20;;;4.10;;
67986;SDS011;54767;53.800;15.956;2023-08-31T05:29:21;3.90;;;3.40;;
67986;SDS011;54767;53.800;15.956;2023-08-31T05:31:51;4.40;;;3.60;;
67986;SDS011;54767;53.800;15.956;2023-08-31T05:34:21;3.70;;;3.40;;
67986;SDS011;54767;53.800;15.956;2023-08-31T05:36:52;3.40;;;3.10;;
67986;SDS011;54767;53.800;15.956;2023-08-31T05:39:21;4.10;;;3.70;;
67986;SDS011;54767;53.800;15.956;2023-08-31T05:41:49;4.40;;;3.50;;
67986;SDS011;54767;53.800;15.956;2023-08-31T05:44:17;4.00;;;3.50;;
67986;SDS011;54767;53.800;15.956;2023-08-31T05:46:45;3.50;;;3.20;;
67986;SDS011;54767;53.800;15.956;2023-08-31T05:49:13;4.00;;;3.60;;
67986;SDS011;54767;53.800;15.956;2023-08-31T05:51:41;5.60;;;3.50;;
67986;SDS011;54767;53.800;15.956;2023-08-31T05:54:10;5.80;;;3.60;;
67986;SDS011;54767;53.800;15.956;2023-08-31T05:56:40;5.30;;;3.40;;
67986;SDS011;54767;53.800;15.956;2023-08-31T05:59:09;5.20;;;3.30;;
67986;SDS011;54767;53.800;15.956;2023-08-31T06:01:37;5.00;;;3.50;;
67986;SDS011;54767;53.800;15.956;2023-08-31T06:04:05;4.50;;;3.70;;
67986;SDS011;54767;53.800;15.956;2023-08-31T06:06:33;5.10;;;3.70;;
67986;SDS011;54767;53.800;15.956;2023-08-31T06:09:02;4.60;;;3.50;;
67986;SDS011;54767;53.800;15.956;2023-08-31T06:11:30;5.50;;;3.80;;
67986;SDS011;54767;53.800;15.956;2023-08-31T06:13:58;4.20;;;3.60;;
67986;SDS011;54767;53.800;15.956;2023-08-31T06:16:27;4.30;;;3.50;;
67986;SDS011;54767;53.800;15.956;2023-08-31T06:18:55;3.60;;;3.30;;
67986;SDS011;54767;53.800;15.956;2023-08-31T06:21:23;3.90;;;3.30;;
67986;SDS011;54767;53.800;15.956;2023-08-31T06:23:51;4.20;;;3.30;;
67986;SDS011;54767;53.800;15.956;2023-08-31T06:26:19;4.10;;;3.40;;
67986;SDS011;54767;53.800;15.956;2023-08-31T06:28:48;4.30;;;3.40;;
67986;SDS011;54767;53.800;15.956;2023-08-31T06:31:16;3.60;;;3.30;;
67986;SDS011;54767;53.800;15.956;2023-08-31T06:33:44;6.80;;;3.30;;
67986;SDS011;54767;53.800;15.956;2023-08-31T06:36:12;4.70;;;3.10;;
67986;SDS011;54767;53.800;15.956;2023-08-31T06:38:40;3.80;;;3.30;;
67986;SDS011;54767;53.800;15.956;2023-08-31T06:41:09;4.80;;;3.30;;
67986;SDS011;54767;53.800;15.956;2023-08-31T06:43:37;3.50;;;3.20;;
67986;SDS011;54767;53.800;15.956;2023-08-31T06:46:06;3.80;;;3.30;;
67986;SDS011;54767;53.800;15.956;2023-08-31T06:48:50;4.10;;;3.50;;
67986;SDS011;54767;53.800;15.956;2023-08-31T06:51:19;4.20;;;3.60;;
67986;SDS011;54767;53.800;15.956;2023-08-31T06:53:51;4.30;;;3.90;;
67986;SDS011;54767;53.800;15.956;2023-08-31T06:56:20;5.30;;;4.00;;
67986;SDS011;54767;53.800;15.956;2023-08-31T06:58:48;4.40;;;4.00;;
67986;SDS011;54767;53.800;15.956;2023-08-31T07:01:16;4.80;;;4.30;;
67986;SDS011;54767;53.800;15.956;2023-08-31T07:03:44;6.40;;;4.60;;
67986;SDS011;54767;53.800;15.956;2023-08-31T07:06:14;5.30;;;4.80;;
67986;SDS011;54767;53.800;15.956;2023-08-31T07:08:42;5.80;;;4.60;;
67986;SDS011;54767;53.800;15.956;2023-08-31T07:11:13;5.70;;;5.20;;
67986;SDS011;54767;53.800;15.956;2023-08-31T07:13:42;8.40;;;5.20;;
67986;SDS011;54767;53.800;15.956;2023-08-31T07:16:11;5.10;;;4.60;;
67986;SDS011;54767;53.800;15.956;2023-08-31T07:18:39;5.90;;;5.10;;
67986;SDS011;54767;53.800;15.956;2023-08-31T07:21:07;6.60;;;5.60;;
67986;SDS011;54767;53.800;15.956;2023-08-31T07:23:38;7.20;;;6.00;;
67986;SDS011;54767;53.800;15.956;2023-08-31T07:26:07;8.20;;;7.40;;
67986;SDS011;54767;53.800;15.956;2023-08-31T07:28:35;7.90;;;7.00;;
67986;SDS011;54767;53.800;15.956;2023-08-31T07:31:04;8.10;;;7.30;;
67986;SDS011;54767;53.800;15.956;2023-08-31T07:33:34;9.30;;;7.60;;
67986;SDS011;54767;53.800;15.956;2023-08-31T07:38:56;11.90;;;10.10;;
67986;SDS011;54767;53.800;15.956;2023-08-31T07:41:50;11.40;;;10.10;;
67986;SDS011;54767;53.800;15.956;2023-08-31T07:44:23;12.00;;;10.10;;
67986;SDS011;54767;53.800;15.956;2023-08-31T07:47:00;11.30;;;9.80;;
67986;SDS011;54767;53.800;15.956;2023-08-31T07:49:33;11.50;;;10.10;;
67986;SDS011;54767;53.800;15.956;2023-08-31T07:52:02;11.10;;;9.80;;
67986;SDS011;54767;53.800;15.956;2023-08-31T07:54:31;12.50;;;10.80;;
67986;SDS011;54767;53.800;15.956;2023-08-31T07:57:05;11.40;;;9.80;;
67986;SDS011;54767;53.800;15.956;2023-08-31T07:59:34;10.50;;;9.40;;
67986;SDS011;54767;53.800;15.956;2023-08-31T08:02:02;11.50;;;9.40;;
67986;SDS011;54767;53.800;15.956;2023-08-31T08:04:31;11.40;;;9.90;;
67986;SDS011;54767;53.800;15.956;2023-08-31T08:10:20;12.90;;;10.30;;
67986;SDS011;54767;53.800;15.956;2023-08-31T08:12:50;12.60;;;10.90;;
67986;SDS011;54767;53.800;15.956;2023-08-31T08:18:34;11.70;;;9.80;;
67986;SDS011;54767;53.800;15.956;2023-08-31T08:21:22;11.30;;;9.60;;
67986;SDS011;54767;53.800;15.956;2023-08-31T08:23:51;10.60;;;9.50;;
67986;SDS011;54767;53.800;15.956;2023-08-31T08:26:21;9.50;;;7.70;;
67986;SDS011;54767;53.800;15.956;2023-08-31T08:28:49;8.80;;;7.40;;
67986;SDS011;54767;53.800;15.956;2023-08-31T08:31:19;7.00;;;6.40;;
67986;SDS011;54767;53.800;15.956;2023-08-31T08:33:50;6.80;;;6.10;;
67986;SDS011;54767;53.800;15.956;2023-08-31T08:36:18;8.10;;;6.40;;
67986;SDS011;54767;53.800;15.956;2023-08-31T08:38:46;6.10;;;5.50;;
67986;SDS011;54767;53.800;15.956;2023-08-31T08:41:15;5.60;;;4.70;;
67986;SDS011;54767;53.800;15.956;2023-08-31T08:43:53;4.40;;;4.00;;
67986;SDS011;54767;53.800;15.956;2023-08-31T08:46:32;4.60;;;4.10;;
67986;SDS011;54767;53.800;15.956;2023-08-31T08:49:01;5.20;;;3.60;;
67986;SDS011;54767;53.800;15.956;2023-08-31T08:51:31;4.00;;;3.50;;
67986;SDS011;54767;53.800;15.956;2023-08-31T08:54:00;3.80;;;3.50;;
67986;SDS011;54767;53.800;15.956;2023-08-31T08:56:29;3.70;;;3.40;;
67986;SDS011;54767;53.800;15.956;2023-08-31T08:58:57;3.80;;;3.30;;
67986;SDS011;54767;53.800;15.956;2023-08-31T09:01:25;3.90;;;3.20;;
67986;SDS011;54767;53.800;15.956;2023-08-31T09:03:57;2.90;;;2.70;;
67986;SDS011;54767;53.800;15.956;2023-08-31T09:06:27;3.50;;;3.20;;
67986;SDS011;54767;53.800;15.956;2023-08-31T09:08:56;3.60;;;3.30;;
67986;SDS011;54767;53.800;15.956;2023-08-31T09:11:25;5.40;;;3.10;;
67986;SDS011;54767;53.800;15.956;2023-08-31T09:13:54;3.90;;;3.50;;
67986;SDS011;54767;53.800;15.956;2023-08-31T09:16:27;5.30;;;3.70;;
67986;SDS011;54767;53.800;15.956;2023-08-31T09:18:58;4.10;;;3.50;;
67986;SDS011;54767;53.800;15.956;2023-08-31T09:21:36;5.00;;;3.90;;
67986;SDS011;54767;53.800;15.956;2023-08-31T09:24:05;4.30;;;3.90;;
67986;SDS011;54767;53.800;15.956;2023-08-31T09:26:44;6.80;;;4.00;;
67986;SDS011;54767;53.800;15.956;2023-08-31T09:29:14;6.70;;;4.60;;
67986;SDS011;54767;53.800;15.956;2023-08-31T09:31:50;5.30;;;4.90;;
67986;SDS011;54767;53.800;15.956;2023-08-31T09:34:19;6.30;;;5.20;;
67986;SDS011;54767;53.800;15.956;2023-08-31T09:36:48;6.80;;;5.40;;
67986;SDS011;54767;53.800;15.956;2023-08-31T09:39:27;6.00;;;5.40;;
67986;SDS011;54767;53.800;15.956;2023-08-31T09:42:04;7.90;;;6.40;;
67986;SDS011;54767;53.800;15.956;2023-08-31T09:44:34;7.90;;;6.40;;
67986;SDS011;54767;53.800;15.956;2023-08-31T09:47:09;8.20;;;7.30;;
67986;SDS011;54767;53.800;15.956;2023-08-31T09:49:38;8.30;;;6.80;;
67986;SDS011;54767;53.800;15.956;2023-08-31T09:52:09;7.80;;;6.70;;
67986;SDS011;54767;53.800;15.956;2023-08-31T09:58:09;8.50;;;6.90;;
67986;SDS011;54767;53.800;15.956;2023-08-31T10:00:49;8.30;;;7.50;;
67986;SDS011;54767;53.800;15.956;2023-08-31T10:03:21;11.60;;;7.50;;
67986;SDS011;54767;53.800;15.956;2023-08-31T10:05:49;8.30;;;7.00;;
67986;SDS011;54767;53.800;15.956;2023-08-31T10:08:18;10.20;;;7.60;;
67986;SDS011;54767;53.800;15.956;2023-08-31T10:10:47;10.10;;;7.50;;
67986;SDS011;54767;53.800;15.956;2023-08-31T10:16:54;8.70;;;7.20;;
67986;SDS011;54767;53.800;15.956;2023-08-31T10:19:33;9.00;;;7.40;;
67986;SDS011;54767;53.800;15.956;2023-08-31T10:22:21;10.40;;;7.50;;
67986;SDS011;54767;53.800;15.956;2023-08-31T10:24:56;8.70;;;7.40;;
67986;SDS011;54767;53.800;15.956;2023-08-31T10:27:26;10.60;;;8.20;;
67986;SDS011;54767;53.800;15.956;2023-08-31T10:29:56;10.90;;;8.30;;
67986;SDS011;54767;53.800;15.956;2023-08-31T10:32:24;10.60;;;8.00;;
67986;SDS011;54767;53.800;15.956;2023-08-31T10:35:05;8.50;;;7.50;;
67986;SDS011;54767;53.800;15.956;2023-08-31T10:37:40;10.20;;;8.10;;
67986;SDS011;54767;53.800;15.956;2023-08-31T10:42:46;10.50;;;7.90;;
67986;SDS011;54767;53.800;15.956;2023-08-31T10:45:19;11.20;;;8.20;;
67986;SDS011;54767;53.800;15.956;2023-08-31T10:47:49;8.60;;;7.20;;
67986;SDS011;54767;53.800;15.956;2023-08-31T10:50:20;9.10;;;7.90;;
67986;SDS011;54767;53.800;15.956;2023-08-31T10:52:51;11.20;;;7.80;;
67986;SDS011;54767;53.800;15.956;2023-08-31T10:55:19;9.10;;;7.50;;
67986;SDS011;54767;53.800;15.956;2023-08-31T10:57:52;11.10;;;8.20;;
67986;SDS011;54767;53.800;15.956;2023-08-31T11:06:48;10.40;;;8.30;;
67986;SDS011;54767;53.800;15.956;2023-08-31T11:09:20;10.70;;;8.40;;
67986;SDS011;54767;53.800;15.956;2023-08-31T11:11:59;10.90;;;8.60;;
67986;SDS011;54767;53.800;15.956;2023-08-31T11:14:27;10.20;;;8.50;;
67986;SDS011;54767;53.800;15.956;2023-08-31T11:20:04;11.30;;;8.90;;
67986;SDS011;54767;53.800;15.956;2023-08-31T11:22:43;13.60;;;9.90;;
67986;SDS011;54767;53.800;15.956;2023-08-31T11:25:32;11.60;;;10.00;;
67986;SDS011;54767;53.800;15.956;2023-08-31T11:28:01;12.40;;;9.80;;
67986;SDS011;54767;53.800;15.956;2023-08-31T12:55:23;5.40;;;4.20;;
67986;SDS011;54767;53.800;15.956;2023-08-31T12:57:57;4.30;;;3.80;;
67986;SDS011;54767;53.800;15.956;2023-08-31T13:03:38;4.20;;;3.80;;
67986;SDS011;54767;53.800;15.956;2023-08-31T13:06:07;4.40;;;4.00;;
67986;SDS011;54767;53.800;15.956;2023-08-31T13:08:43;4.70;;;4.20;;
67986;SDS011;54767;53.800;15.956;2023-08-31T13:11:13;5.90;;;4.60;;
67986;SDS011;54767;53.800;15.956;2023-08-31T13:13:44;5.70;;;4.70;;
67986;SDS011;54767;53.800;15.956;2023-08-31T14:08:39;3.90;;;2.60;;
67986;SDS011;54767;53.800;15.956;2023-08-31T14:11:38;3.60;;;2.60;;
67986;SDS011;54767;53.800;15.956;2023-08-31T14:14:07;4.20;;;2.70;;
67986;SDS011;54767;53.800;15.956;2023-08-31T14:16:41;4.70;;;2.70;;
67986;SDS011;54767;53.800;15.956;2023-08-31T14:19:20;4.00;;;2.90;;
67986;SDS011;54767;53.800;15.956;2023-08-31T14:22:31;3.10;;;2.80;;
67986;SDS011;54767;53.800;15.956;2023-08-31T14:25:01;4.20;;;3.00;;
67986;SDS011;54767;53.800;15.956;2023-08-31T14:34:05;3.90;;;2.60;;
67986;SDS011;54767;53.800;15.956;2023-08-31T14:43:22;3.20;;;2.60;;
67986;SDS011;54767;53.800;15.956;2023-08-31T14:45:56;3.00;;;2.40;;
67986;SDS011;54767;53.800;15.956;2023-08-31T15:45:58;2.90;;;2.40;;
67986;SDS011;54767;53.800;15.956;2023-08-31T18:29:37;6.30;;;3.70;;
67986;SDS011;54767;53.800;15.956;2023-08-31T20:23:13;4.10;;;2.40;;
67986;SDS011;54767;53.800;15.956;2023-08-31T20:34:40;2.60;;;2.30;;
67986;SDS011;54767;53.800;15.956;2023-08-31T22:37:58;2.40;;;2.20;;
67986;SDS011;54767;53.800;15.956;2023-08-31T22:40:26;2.60;;;2.20;;
67986;SDS011;54767;53.800;15.956;2023-08-31T22:42:55;2.50;;;2.30;;
67986;SDS011;54767;53.800;15.956;2023-08-31T22:45:24;3.20;;;2.30;;
67986;SDS011;54767;53.800;15.956;2023-08-31T22:47:53;2.70;;;2.50;;
67986;SDS011;54767;53.800;15.956;2023-08-31T22:50:22;2.70;;;2.40;;
67986;SDS011;54767;53.800;15.956;2023-08-31T22:52:50;3.40;;;2.40;;
67986;SDS011;54767;53.800;15.956;2023-08-31T22:55:18;2.90;;;2.10;;
67986;SDS011;54767;53.800;15.956;2023-08-31T22:57:47;3.00;;;2.30;;
67986;SDS011;54767;53.800;15.956;2023-08-31T23:00:15;2.60;;;2.40;;
67986;SDS011;54767;53.800;15.956;2023-08-31T23:02:44;2.90;;;2.50;;
67986;SDS011;54767;53.800;15.956;2023-08-31T23:05:13;2.80;;;2.50;;
67986;SDS011;54767;53.800;15.956;2023-08-31T23:07:41;3.00;;;2.20;;
67986;SDS011;54767;53.800;15.956;2023-08-31T23:10:10;2.90;;;2.40;;
67986;SDS011;54767;53.800;15.956;2023-08-31T23:13:08;3.70;;;2.40;;
67986;SDS011;54767;53.800;15.956;2023-08-31T23:15:36;2.40;;;2.30;;
67986;SDS011;54767;53.800;15.956;2023-08-31T23:18:08;2.40;;;2.20;;
67986;SDS011;54767;53.800;15.956;2023-08-31T23:20:37;6.00;;;2.80;;
67986;SDS011;54767;53.800;15.956;2023-08-31T23:23:05;2.70;;;2.40;;
67986;SDS011;54767;53.800;15.956;2023-08-31T23:25:34;4.70;;;2.60;;
67986;SDS011;54767;53.800;15.956;2023-08-31T23:28:02;3.40;;;2.40;;
67986;SDS011;54767;53.800;15.956;2023-08-31T23:30:31;2.60;;;2.40;;
67986;SDS011;54767;53.800;15.956;2023-08-31T23:32:59;2.40;;;2.20;;
67986;SDS011;54767;53.800;15.956;2023-08-31T23:35:27;3.30;;;2.70;;
67986;SDS011;54767;53.800;15.956;2023-08-31T23:37:56;4.70;;;2.50;;
67986;SDS011;54767;53.800;15.956;2023-08-31T23:40:24;3.10;;;2.40;;
67986;SDS011;54767;53.800;15.956;2023-08-31T23:42:52;3.10;;;2.60;;
67986;SDS011;54767;53.800;15.956;2023-08-31T23:45:20;4.00;;;2.30;;
67986;SDS011;54767;53.800;15.956;2023-08-31T23:47:48;2.90;;;2.50;;
67986;SDS011;54767;53.800;15.956;2023-08-31T23:50:17;3.00;;;2.50;;
67986;SDS011;54767;53.800;15.956;2023-08-31T23:52:45;2.40;;;2.20;;
67986;SDS011;54767;53.800;15.956;2023-08-31T23:55:13;2.60;;;2.40;;
67986;SDS011;54767;53.800;15.956;2023-08-31T23:57:41;3.10;;;2.70;;
